Time;durP1;ratioP1;P1;durP2;ratioP2;P2;SDS_P1;SDS_P2;PMS_P1;PMS_P2;Temp;Humidity;BMP_temperature;BMP_pressure;BME280_temperature;BME280_humidity;BME280_pressure;Samples;Min_cycle;Max_cycle;Signal;HPM_P1;HPM_P2
2023/06/23 00:02:06;;;;;;;26.70;24.05;;;615.10;2432.00;;;;;;5051723;28;20028;-58
2023/06/23 00:04:32;;;;;;;27.98;25.25;;;615.10;2432.00;;;;;;5052671;28;20036;-54
2023/06/23 00:06:59;;;;;;;28.30;25.52;;;614.80;2432.00;;;;;;5051881;28;20056;-56
2023/06/23 00:09:25;;;;;;;31.42;28.30;;;614.80;2432.00;;;;;;5052267;28;20033;-54
2023/06/23 00:11:51;;;;;;;27.08;24.33;;;614.70;2432.00;;;;;;5052167;28;20028;-53
2023/06/23 00:14:16;;;;;;;28.00;25.27;;;614.70;2432.00;;;;;;5051809;28;20028;-55
2023/06/23 00:16:42;;;;;;;27.60;24.98;;;614.70;2432.00;;;;;;5052300;28;20170;-53
2023/06/23 00:19:08;;;;;;;29.15;26.08;;;614.70;2432.00;;;;;;5052132;28;20162;-54
2023/06/23 00:21:34;;;;;;;27.65;24.88;;;614.70;2432.00;;;;;;5051875;28;20044;-56
2023/06/23 00:23:59;;;;;;;31.75;26.92;;;614.70;2432.00;;;;;;5051817;28;20642;-53
2023/06/23 00:26:25;;;;;;;31.50;24.38;;;614.70;2432.00;;;;;;5051828;28;20025;-55
2023/06/23 00:28:51;;;;;;;26.08;23.33;;;614.60;2432.00;;;;;;5052113;28;20024;-58
2023/06/23 00:31:17;;;;;;;26.60;21.45;;;614.60;2432.00;;;;;;5051278;28;20056;-56
2023/06/23 00:33:43;;;;;;;24.50;22.02;;;614.60;2432.00;;;;;;5051875;28;20155;-56
2023/06/23 00:36:09;;;;;;;25.80;23.10;;;614.50;2432.00;;;;;;5051567;28;20487;-54
2023/06/23 00:38:34;;;;;;;25.33;22.80;;;614.50;2432.00;;;;;;5039483;28;20068;-56
2023/06/23 00:41:01;;;;;;;25.88;23.15;;;614.50;2432.00;;;;;;5048925;28;20033;-55
2023/06/23 00:43:30;;;;;;;26.48;22.98;;;614.40;2432.00;;;;;;5051931;28;20075;-56
2023/06/23 00:46:01;;;;;;;26.30;21.35;;;589.60;2432.00;;;;;;5051152;28;20491;-56
2023/06/23 00:48:27;;;;;;;22.55;20.35;;;589.70;2432.00;;;;;;5051457;28;20057;-60
2023/06/23 00:50:55;;;;;;;24.55;22.05;;;589.70;2432.00;;;;;;5051447;28;20067;-56
2023/06/23 00:53:21;;;;;;;24.52;21.98;;;614.40;2432.00;;;;;;5049879;28;20065;-56
2023/06/23 00:55:47;;;;;;;25.67;21.27;;;589.70;2432.00;;;;;;5051976;28;20069;-58
2023/06/23 00:58:13;;;;;;;25.80;23.10;;;589.70;2432.00;;;;;;5051375;28;20025;-59
2023/06/23 01:00:38;;;;;;;24.27;22.02;;;614.40;2432.00;;;;;;5050997;28;20036;-60
2023/06/23 01:03:04;;;;;;;25.50;22.45;;;589.70;2432.00;;;;;;5051273;28;20029;-56
2023/06/23 01:05:35;;;;;;;23.92;21.48;;;589.60;2432.00;;;;;;5051315;28;20021;-55
2023/06/23 01:08:27;;;;;;;25.98;22.00;;;589.60;2432.00;;;;;;5042277;28;20034;-59
2023/06/23 01:11:01;;;;;;;24.90;22.42;;;589.50;2432.00;;;;;;5049229;28;20086;-57
2023/06/23 01:13:41;;;;;;;24.10;21.60;;;589.50;2432.00;;;;;;5050938;28;20033;-55
2023/06/23 01:16:20;;;;;;;27.70;24.23;;;589.50;2432.00;;;;;;5051282;28;20024;-56
2023/06/23 01:19:17;;;;;;;27.35;24.52;;;589.50;2432.00;;;;;;5050814;28;20021;-55
2023/06/23 01:22:10;;;;;;;28.75;25.75;;;589.50;2432.00;;;;;;5047686;28;20060;-54
2023/06/23 01:24:44;;;;;;;26.77;23.77;;;589.40;2432.00;;;;;;5036945;28;20145;-60
2023/06/23 01:27:26;;;;;;;26.25;22.98;;;589.20;2432.00;;;;;;5047584;28;20041;-60
2023/06/23 01:29:53;;;;;;;25.10;22.70;;;589.20;2432.00;;;;;;5048127;28;20109;-57
2023/06/23 01:32:21;;;;;;;26.80;24.13;;;;;;;;;;5048697;28;20514;-55
2023/06/23 01:34:50;;;;;;;27.10;24.33;;;;;;;;;;5048115;28;20021;-59
2023/06/23 01:37:18;;;;;;;26.23;23.63;;;;;;;;;;5039270;28;20045;-57
2023/06/23 01:39:48;;;;;;;25.27;22.85;;;;;;;;;;5043649;28;20036;-56
2023/06/23 01:42:16;;;;;;;26.10;23.58;;;;;;;;;;5048016;28;20044;-56
2023/06/23 01:44:45;;;;;;;26.77;23.92;;;;;;;;;;5047970;28;20433;-54
2023/06/23 01:47:17;;;;;;;25.70;22.80;;;;;;;;;;5048620;28;20115;-54
2023/06/23 01:49:44;;;;;;;30.55;22.25;;;;;;;;;;5048038;28;20040;-55
2023/06/23 01:52:10;;;;;;;24.92;22.40;;;;;;;;;;5047864;28;20124;-58
2023/06/23 01:54:39;;;;;;;25.52;22.40;;;;;;;;;;5047735;28;20094;-59
2023/06/23 01:57:06;;;;;;;29.90;23.33;;;;;;;;;;5047741;28;20033;-58
2023/06/23 01:59:33;;;;;;;25.45;22.77;;;;;;;;;;5049370;28;20055;-53
2023/06/23 02:02:00;;;;;;;24.92;22.27;;;;;;;;;;5050422;28;20041;-55
2023/06/23 02:04:27;;;;;;;24.60;22.02;;;;;;;;;;5049909;28;20082;-54
2023/06/23 02:06:54;;;;;;;26.00;23.30;;;;;;;;;;5038859;28;20091;-54
2023/06/23 02:09:25;;;;;;;23.98;21.25;;;;;;;;;;5049977;28;20025;-55
2023/06/23 02:11:53;;;;;;;26.20;23.45;;;;;;;;;;5050116;28;20032;-55
2023/06/23 02:14:20;;;;;;;25.23;22.45;;;;;;;;;;5050001;28;20090;-54
2023/06/23 02:16:46;;;;;;;27.00;24.15;;;;;;;;;;5049306;28;20483;-53
2023/06/23 02:19:14;;;;;;;24.88;22.48;;;;;;;;;;5049895;28;20021;-55
2023/06/23 02:21:41;;;;;;;25.98;23.10;;;;;;;;;;5049448;28;20035;-56
2023/06/23 02:24:08;;;;;;;23.10;20.63;;;;;;;;;;5049205;28;20029;-59
2023/06/23 02:26:36;;;;;;;24.75;21.55;;;;;;;;;;5049452;28;20028;-56
2023/06/23 02:29:05;;;;;;;23.17;20.77;;;588.90;2432.00;;;;;;5049634;28;20374;-56
2023/06/23 02:31:30;;;;;;;28.23;22.73;;;588.80;2432.00;;;;;;5049652;28;20113;-59
2023/06/23 02:33:56;;;;;;;23.88;21.58;;;;;;;;;;5049140;28;20429;-56
2023/06/23 02:36:23;;;;;;;26.27;23.67;;;;;;;;;;5049098;28;20482;-56
2023/06/23 02:38:51;;;;;;;24.88;22.40;;;;;;;;;;5048951;28;20048;-61
2023/06/23 02:41:17;;;;;;;25.33;22.58;;;;;;;;;;5048924;28;20498;-55
2023/06/23 02:43:51;;;;;;;29.25;23.50;;;;;;;;;;5049430;28;20051;-54
2023/06/23 02:46:19;;;;;;;25.30;22.63;;;;;;;;;;5049696;28;20028;-54
2023/06/23 02:48:46;;;;;;;23.35;20.75;;;;;;;;;;5048535;28;20050;-54
2023/06/23 02:51:14;;;;;;;22.77;20.50;;;;;;;;;;5049540;28;20444;-54
2023/06/23 02:53:48;;;;;;;23.33;20.88;;;563.60;2432.00;;;;;;5048919;28;20029;-54
2023/06/23 02:56:25;;;;;;;22.08;19.88;;;563.40;2432.00;;;;;;5049330;28;20099;-54
2023/06/23 02:58:57;;;;;;;22.15;19.83;;;563.30;2432.00;;;;;;5049225;28;20029;-54
2023/06/23 03:01:26;;;;;;;23.10;20.60;;;563.30;2432.00;;;;;;5048992;28;20064;-53
2023/06/23 03:03:54;;;;;;;22.40;20.10;;;563.20;2432.00;;;;;;5048860;28;20532;-60
2023/06/23 03:06:22;;;;;;;21.45;19.15;;;538.50;2406.40;;;;;;5037532;28;20029;-55
2023/06/23 03:08:49;;;;;;;22.80;20.52;;;563.40;2432.00;;;;;;5047378;28;20040;-58
2023/06/23 03:11:17;;;;;;;23.05;18.52;;;563.50;2432.00;;;;;;5048987;28;20120;-53
2023/06/23 03:13:43;;;;;;;23.55;18.60;;;563.60;2432.00;;;;;;5049129;28;20384;-54
2023/06/23 03:16:15;;;;;;;22.13;18.25;;;563.70;2432.00;;;;;;5048455;28;20021;-54
2023/06/23 03:18:46;;;;;;;24.55;18.63;;;563.60;2432.00;;;;;;5049125;28;20033;-54
2023/06/23 03:21:14;;;;;;;20.20;18.15;;;563.50;2432.00;;;;;;5049063;28;20528;-54
2023/06/23 03:23:40;;;;;;;24.58;19.08;;;563.60;2432.00;;;;;;5048519;28;20096;-58
2023/06/23 03:26:08;;;;;;;20.63;18.45;;;563.60;2432.00;;;;;;5048810;28;20086;-53
2023/06/23 03:28:38;;;;;;;23.92;20.25;;;563.60;2432.00;;;;;;5047448;28;20359;-54
2023/06/23 03:31:12;;;;;;;19.58;17.50;;;563.60;2432.00;;;;;;5037032;28;20032;-54
2023/06/23 03:33:41;;;;;;;21.50;16.33;;;563.90;2432.00;;;;;;5048381;28;20032;-57
2023/06/23 03:36:21;;;;;;;21.65;17.20;;;564.10;2432.00;;;;;;5048496;28;20025;-56
2023/06/23 03:38:56;;;;;;;20.25;16.27;;;588.90;2432.00;;;;;;5047618;28;20440;-56
2023/06/23 03:41:22;;;;;;;18.17;16.27;;;589.10;2432.00;;;;;;5048398;28;20491;-55
2023/06/23 03:43:54;;;;;;;21.30;17.15;;;589.20;2432.00;;;;;;5048639;28;20104;-58
2023/06/23 03:46:28;;;;;;;22.60;18.02;;;589.40;2432.00;;;;;;5048777;28;20514;-55
2023/06/23 03:48:58;;;;;;;20.10;16.55;;;589.50;2432.00;;;;;;5048610;28;20096;-54
2023/06/23 03:51:27;;;;;;;18.48;14.90;;;589.60;2432.00;;;;;;5048563;28;20055;-54
2023/06/23 03:53:55;;;;;;;20.70;16.85;;;589.50;2432.00;;;;;;5048160;28;20025;-55
2023/06/23 03:56:23;;;;;;;19.40;15.63;;;589.50;2432.00;;;;;;5048780;28;20116;-54
2023/06/23 03:58:50;;;;;;;18.13;16.23;;;589.50;2432.00;;;;;;5048865;28;20427;-55
2023/06/23 04:01:19;;;;;;;19.67;15.43;;;589.70;2432.00;;;;;;5041251;28;20044;-54
2023/06/23 04:03:46;;;;;;;19.42;16.15;;;614.40;2432.00;;;;;;5035085;28;20108;-57
2023/06/23 04:06:13;;;;;;;17.40;15.52;;;614.70;2432.00;;;;;;5048780;28;20024;-56
2023/06/23 04:08:40;;;;;;;21.25;16.48;;;614.80;2432.00;;;;;;5048366;28;20537;-56
2023/06/23 04:11:08;;;;;;;17.38;15.45;;;614.70;2432.00;;;;;;5048314;28;20049;-54
2023/06/23 04:13:35;;;;;;;20.92;15.32;;;614.80;2432.00;;;;;;5048184;28;20104;-55
2023/06/23 04:16:02;;;;;;;17.77;15.93;;;615.00;2432.00;;;;;;5048688;28;20123;-54
2023/06/23 04:18:30;;;;;;;17.17;15.48;;;615.20;2432.00;;;;;;5035352;28;20017;-54
2023/06/23 04:20:57;;;;;;;20.00;15.35;;;640.10;2432.00;;;;;;5048237;28;20029;-58
2023/06/23 04:23:26;;;;;;;20.60;16.35;;;640.30;2432.00;;;;;;5034350;28;20033;-56
2023/06/23 04:25:53;;;;;;;22.20;16.45;;;640.50;2432.00;;;;;;5048319;28;20025;-55
2023/06/23 04:28:23;;;;;;;18.27;15.52;;;665.60;2432.00;;;;;;5051060;28;20021;-58
2023/06/23 04:30:50;;;;;;;17.83;15.93;;;666.00;2432.00;;;;;;5052169;28;20021;-59
2023/06/23 04:33:16;;;;;;;20.60;17.23;;;666.50;2432.00;;;;;;5044844;28;20420;-55
2023/06/23 04:35:42;;;;;;;20.55;18.00;;;716.90;2432.00;;;;;;5039216;28;20025;-54
2023/06/23 04:38:17;;;;;;;17.55;15.70;;;717.60;2432.00;;;;;;5051155;28;20519;-59
2023/06/23 04:41:00;;;;;;;23.77;15.75;;;743.10;2380.80;;;;;;5052362;28;20113;-54
2023/06/23 04:43:31;;;;;;;18.83;15.40;;;793.60;2252.80;;;;;;5051439;28;20036;-55
2023/06/23 04:45:59;;;;;;;22.02;15.88;;;793.90;2176.00;;;;;;5044032;28;20033;-59
2023/06/23 04:48:29;;;;;;;20.88;15.60;;;794.50;2099.20;;;;;;5031334;28;20059;-59
2023/06/23 04:50:57;;;;;;;17.95;14.40;;;819.80;2022.40;;;;;;5038837;28;20031;-60
2023/06/23 04:53:30;;;;;;;20.02;14.98;;;845.30;1971.20;;;;;;5050558;28;20108;-55
2023/06/23 04:56:00;;;;;;;17.73;15.95;;;870.50;1894.40;;;;;;5051422;28;20029;-57
2023/06/23 04:58:29;;;;;;;17.10;15.30;;;870.70;1868.80;;;;;;5051054;28;20352;-56
2023/06/23 05:00:56;;;;;;;16.17;14.55;;;871.10;1843.20;;;;;;5051293;28;20049;-56
2023/06/23 05:03:23;;;;;;;17.30;15.02;;;896.10;1792.00;;;;;;5051088;28;20020;-56
2023/06/23 05:05:55;;;;;;;16.63;13.63;;;896.70;1766.40;;;;;;5030797;28;20040;-59
2023/06/23 05:08:24;;;;;;;24.87;15.33;;;;;;;;;;5030725;28;20029;-56
2023/06/23 05:10:50;;;;;;;20.83;14.88;;;;;;;;;;5025327;28;20258;-56
2023/06/23 05:13:19;;;;;;;17.10;14.73;;;947.40;1638.40;;;;;;5051065;28;20379;-55
2023/06/23 05:15:47;;;;;;;19.05;16.58;;;947.40;1638.40;;;;;;5038520;28;20514;-56
2023/06/23 05:18:16;;;;;;;18.80;16.33;;;948.10;1612.80;;;;;;5037722;28;20075;-56
2023/06/23 05:20:42;;;;;;;18.17;14.57;;;973.00;1587.20;;;;;;5051719;28;20069;-58
2023/06/23 05:23:12;;;;;;;19.45;15.90;;;973.60;1561.60;;;;;;5050394;28;20078;-60
2023/06/23 05:25:38;;;;;;;16.60;15.10;;;973.70;1561.60;;;;;;5047965;28;20388;-70
2023/06/23 05:28:06;;;;;;;17.92;15.68;;;998.60;1536.00;;;;;;5050383;28;20369;-69
2023/06/23 05:30:34;;;;;;;19.90;18.20;;;973.70;1510.40;;;;;;5051119;28;20029;-60
2023/06/23 05:33:01;;;;;;;17.45;15.75;;;998.60;1536.00;;;;;;5050962;28;20044;-60
2023/06/23 05:35:30;;;;;;;17.02;15.27;;;999.00;1459.20;;;;;;5050670;28;20028;-59
2023/06/23 05:37:57;;;;;;;20.50;16.15;;;973.70;1484.80;;;;;;5049655;28;20194;-59
2023/06/23 05:40:23;;;;;;;16.40;14.60;;;;;;;;;;5050271;28;20476;-59
2023/06/23 05:42:49;;;;;;;18.10;16.48;;;972.90;1536.00;;;;;;5050656;28;20053;-60
2023/06/23 05:45:14;;;;;;;17.85;16.00;;;972.80;1561.60;;;;;;5050482;28;20460;-60
2023/06/23 05:48:01;;;;;;;18.40;16.70;;;998.80;1510.40;;;;;;5050733;28;20029;-59
2023/06/23 05:50:31;;;;;;;17.73;16.30;;;1024.20;1459.20;;;;;;5050564;28;20470;-67
2023/06/23 05:53:02;;;;;;;18.00;16.30;;;1049.60;1433.60;;;;;;5050259;28;20505;-59
2023/06/23 05:55:29;;;;;;;17.85;16.13;;;1024.60;1433.60;;;;;;5049962;28;20029;-67
2023/06/23 05:58:00;;;;;;;18.40;16.60;;;1050.10;1433.60;;;;;;5041888;28;20064;-59
2023/06/23 06:00:36;;;;;;;18.65;17.20;;;1075.30;1408.00;;;;;;5046125;28;20537;-65
2023/06/23 06:03:06;;;;;;;18.33;16.63;;;1075.40;1382.40;;;;;;5049982;28;20037;-61
2023/06/23 06:05:33;;;;;;;20.50;18.48;;;1076.10;1356.80;;;;;;5049916;28;20497;-62
2023/06/23 06:08:00;;;;;;;30.38;20.38;;;1101.00;1356.80;;;;;;5050073;28;20033;-62
2023/06/23 06:10:27;;;;;;;19.95;18.33;;;1100.90;1331.20;;;;;;5049978;28;20021;-63
2023/06/23 06:12:55;;;;;;;18.90;17.05;;;1075.90;1331.20;;;;;;5050106;28;20021;-64
2023/06/23 06:15:22;;;;;;;19.00;17.40;;;1076.10;1331.20;;;;;;5046056;28;20518;-62
2023/06/23 06:17:49;;;;;;;20.67;18.02;;;1101.30;1331.20;;;;;;5031298;28;20133;-62
2023/06/23 06:20:17;;;;;;;30.83;18.98;;;1126.50;1331.20;;;;;;5050034;28;20060;-62
2023/06/23 06:22:45;;;;;;;21.45;18.55;;;1126.60;1305.60;;;;;;5040160;28;20071;-62
2023/06/23 06:25:12;;;;;;;19.30;17.40;;;1127.10;1305.60;;;;;;5030033;28;20025;-62
2023/06/23 06:27:41;;;;;;;20.60;18.77;;;1152.20;1254.40;;;;;;5029961;28;20022;-63
2023/06/23 06:30:08;;;;;;;20.63;18.52;;;1152.70;1228.80;;;;;;5029501;28;20417;-63
2023/06/23 06:32:37;;;;;;;21.58;19.38;;;1152.50;1254.40;;;;;;5040164;28;20051;-63
2023/06/23 06:35:06;;;;;;;28.75;20.92;;;1152.70;1203.20;;;;;;5049592;28;20052;-63
2023/06/23 06:37:37;;;;;;;22.88;20.67;;;1177.80;1203.20;;;;;;5049096;28;20041;-62
2023/06/23 06:40:07;;;;;;;23.70;21.17;;;1127.30;1254.40;;;;;;5049105;28;20021;-63
2023/06/23 06:42:34;;;;;;;24.42;21.92;;;;;;;;;;5040130;28;20044;-62
2023/06/23 06:45:00;;;;;;;23.27;21.10;;;;;;;;;;5044686;28;20501;-62
2023/06/23 06:47:28;;;;;;;23.70;21.85;;;1127.30;1254.40;;;;;;5049379;28;20029;-62
2023/06/23 06:49:55;;;;;;;22.08;19.95;;;1126.70;1280.00;;;;;;5049046;28;20151;-62
2023/06/23 06:52:22;;;;;;;23.77;21.60;;;1152.60;1203.20;;;;;;5049489;28;20021;-64
2023/06/23 06:54:48;;;;;;;24.38;21.83;;;1152.10;1228.80;;;;;;5048719;28;20025;-63
2023/06/23 06:57:14;;;;;;;25.30;22.73;;;1126.70;1280.00;;;;;;5049119;28;20040;-63
2023/06/23 06:59:40;;;;;;;26.08;23.02;;;1152.40;1254.40;;;;;;5049556;28;20044;-63
2023/06/23 07:02:09;;;;;;;25.10;22.92;;;1152.00;1254.40;;;;;;5049105;28;20039;-64
2023/06/23 07:04:36;;;;;;;24.52;22.02;;;1127.10;1280.00;;;;;;5048890;28;20025;-62
2023/06/23 07:07:02;;;;;;;22.65;20.52;;;1152.10;1254.40;;;;;;5048657;28;20090;-61
2023/06/23 07:09:27;;;;;;;53.80;28.30;;;1177.80;1228.80;;;;;;5049069;28;20025;-61
2023/06/23 07:11:57;;;;;;;28.05;25.08;;;1152.20;1254.40;;;;;;5048863;28;20025;-63
2023/06/23 07:14:23;;;;;;;30.23;23.98;;;1178.00;1203.20;;;;;;5048759;28;20029;-63
2023/06/23 07:16:49;;;;;;;25.25;22.60;;;1152.70;1228.80;;;;;;5049107;28;20044;-62
2023/06/23 07:19:14;;;;;;;26.63;23.85;;;1178.00;1228.80;;;;;;5049098;28;20043;-65
2023/06/23 07:21:40;;;;;;;25.77;23.20;;;1178.20;1203.20;;;;;;5048765;28;20075;-61
2023/06/23 07:24:06;;;;;;;26.98;22.88;;;1203.40;1203.20;;;;;;5048535;28;20403;-61
2023/06/23 07:26:33;;;;;;;29.73;26.65;;;1203.70;1203.20;;;;;;5048864;28;20375;-62
2023/06/23 07:28:59;;;;;;;28.80;25.33;;;1178.50;1203.20;;;;;;5048928;28;20029;-66
2023/06/23 07:31:25;;;;;;;27.70;24.95;;;1203.30;1228.80;;;;;;5048655;28;20017;-64
2023/06/23 07:33:51;;;;;;;27.45;24.83;;;1228.90;1203.20;;;;;;5049245;28;20379;-62
2023/06/23 07:36:17;;;;;;;26.77;23.83;;;1228.80;1203.20;;;;;;5044079;28;20026;-61
2023/06/23 07:38:43;;;;;;;25.98;23.65;;;1229.00;1177.60;;;;;;5039793;28;20063;-61
2023/06/23 07:41:08;;;;;;;27.25;24.63;;;1254.40;1203.20;;;;;;5048738;28;20035;-63
2023/06/23 07:43:34;;;;;;;27.52;25.10;;;1255.00;1152.00;;;;;;5048745;28;20021;-62
2023/06/23 07:46:00;;;;;;;24.45;22.65;;;1254.50;1177.60;;;;;;5049004;28;20368;-62
2023/06/23 07:48:25;;;;;;;27.05;24.67;;;1254.80;1177.60;;;;;;5048263;28;20017;-61
2023/06/23 07:50:51;;;;;;;25.42;23.17;;;1254.50;1177.60;;;;;;5048584;28;20029;-62
2023/06/23 07:53:17;;;;;;;26.10;23.77;;;1229.50;1152.00;;;;;;5048631;28;20605;-62
2023/06/23 07:55:42;;;;;;;26.83;24.33;;;1254.50;1177.60;;;;;;5048384;28;20521;-64
2023/06/23 07:58:08;;;;;;;26.92;24.33;;;1254.50;1177.60;;;;;;5048729;28;20044;-62
2023/06/23 08:00:34;;;;;;;28.40;26.00;;;1254.80;1177.60;;;;;;5048422;28;20471;-62
2023/06/23 08:03:00;;;;;;;28.80;26.08;;;1255.00;1152.00;;;;;;5051569;28;20383;-62
2023/06/23 08:05:26;;;;;;;28.90;26.08;;;1254.60;1177.60;;;;;;5052179;28;20019;-62
2023/06/23 08:07:51;;;;;;;27.55;24.98;;;1203.90;1177.60;;;;;;5052515;28;20040;-61
2023/06/23 08:10:17;;;;;;;24.92;22.88;;;1229.00;1177.60;;;;;;5052274;28;20021;-62
2023/06/23 08:12:43;;;;;;;25.95;23.55;;;1228.80;1203.20;;;;;;5047539;28;20029;-61
2023/06/23 08:15:09;;;;;;;27.45;24.80;;;1178.30;1203.20;;;;;;5043815;28;20028;-62
2023/06/23 08:17:35;;;;;;;26.90;23.83;;;1101.40;1331.20;;;;;;5051843;28;20027;-61
2023/06/23 08:20:00;;;;;;;25.75;23.23;;;1075.70;1356.80;;;;;;5052068;28;20092;-61
2023/06/23 08:22:26;;;;;;;24.98;22.00;;;1050.00;1433.60;;;;;;5051255;28;20116;-61
2023/06/23 08:24:52;;;;;;;23.02;20.70;;;1024.90;1433.60;;;;;;5050675;28;20044;-63
2023/06/23 08:27:17;;;;;;;23.08;20.88;;;1024.30;1459.20;;;;;;5049891;28;20017;-62
2023/06/23 08:29:43;;;;;;;27.85;23.40;;;1024.20;1484.80;;;;;;5050689;28;20527;-62
2023/06/23 08:32:10;;;;;;;26.15;22.52;;;1024.00;1484.80;;;;;;5050193;28;20033;-62
2023/06/23 08:34:37;;;;;;;23.05;20.90;;;998.80;1510.40;;;;;;5050342;28;20025;-61
2023/06/23 08:37:03;;;;;;;27.25;22.35;;;998.80;1536.00;;;;;;5049915;28;20049;-64
2023/06/23 08:39:28;;;;;;;23.42;20.98;;;973.50;1536.00;;;;;;5049782;28;20021;-62
2023/06/23 08:41:58;;;;;;;27.58;21.05;;;973.60;1536.00;;;;;;5049730;28;20364;-62
2023/06/23 08:44:25;;;;;;;23.38;18.98;;;973.30;1587.20;;;;;;5050199;28;20383;-62
2023/06/23 08:46:54;;;;;;;22.27;20.02;;;973.20;1612.80;;;;;;5049735;28;20060;-62
2023/06/23 08:49:23;;;;;;;26.33;20.92;;;973.30;1587.20;;;;;;5051966;28;20568;-64
2023/06/23 08:51:50;;;;;;;24.33;21.77;;;948.10;1587.20;;;;;;5051693;28;20148;-64
2023/06/23 08:54:16;;;;;;;25.20;18.88;;;973.00;1587.20;;;;;;5051762;28;20025;-61
2023/06/23 08:56:44;;;;;;;20.20;17.98;;;948.10;1510.40;;;;;;5051444;28;20040;-61
2023/06/23 08:59:10;;;;;;;25.88;20.60;;;972.90;1536.00;;;;;;5051388;28;20025;-65
2023/06/23 09:01:36;;;;;;;23.08;18.83;;;948.10;1561.60;;;;;;5051124;28;20115;-61
2023/06/23 09:04:03;;;;;;;27.52;19.83;;;972.80;1587.20;;;;;;5044949;28;20491;-61
2023/06/23 09:06:29;;;;;;;21.13;18.52;;;973.00;1587.20;;;;;;5044535;28;20529;-61
2023/06/23 09:08:55;;;;;;;23.48;19.23;;;972.90;1536.00;;;;;;5051096;28;20025;-62
2023/06/23 09:11:21;;;;;;;22.35;17.30;;;948.10;1510.40;;;;;;5051527;28;20028;-61
2023/06/23 09:13:51;;;;;;;27.70;20.35;;;972.80;1561.60;;;;;;5049661;28;20021;-63
2023/06/23 09:16:18;;;;;;;28.42;19.17;;;972.90;1561.60;;;;;;5050649;28;20121;-62
2023/06/23 09:18:47;;;;;;;21.15;18.50;;;972.90;1587.20;;;;;;5038006;28;20020;-61
2023/06/23 09:21:13;;;;;;;23.08;16.52;;;972.90;1561.60;;;;;;5051363;28;20043;-61
2023/06/23 09:23:38;;;;;;;24.83;18.98;;;972.90;1561.60;;;;;;5050784;28;20468;-61
2023/06/23 09:26:06;;;;;;;20.27;17.48;;;973.10;1510.40;;;;;;5050981;28;20029;-62
2023/06/23 09:28:37;;;;;;;21.08;16.73;;;973.00;1536.00;;;;;;5041243;28;20380;-63
2023/06/23 09:31:12;;;;;;;23.88;16.90;;;973.10;1561.60;;;;;;5044720;28;20478;-62
2023/06/23 09:33:53;;;;;;;23.30;15.93;;;973.10;1587.20;;;;;;5049255;28;20479;-62
2023/06/23 09:36:19;;;;;;;17.55;14.32;;;948.10;1510.40;;;;;;5049370;28;20048;-61
2023/06/23 09:38:46;;;;;;;26.58;15.70;;;948.10;1484.80;;;;;;5048378;28;20045;-63
2023/06/23 09:41:18;;;;;;;21.35;15.10;;;948.10;1484.80;;;;;;5048742;28;20037;-63
2023/06/23 09:43:46;;;;;;;20.92;14.40;;;972.80;1587.20;;;;;;5048841;28;20055;-62
2023/06/23 09:46:15;;;;;;;24.17;14.23;;;948.10;1510.40;;;;;;5048938;28;20055;-62
2023/06/23 09:48:46;;;;;;;26.40;14.18;;;948.10;1561.60;;;;;;5035866;28;20079;-61
2023/06/23 09:51:12;;;;;;;19.02;13.50;;;948.10;1536.00;;;;;;5048796;28;20095;-62
2023/06/23 09:53:40;;;;;;;20.67;16.80;;;972.80;1587.20;;;;;;5047767;28;20104;-61
2023/06/23 09:56:07;;;;;;;24.58;17.38;;;948.00;1561.60;;;;;;5048336;28;20523;-63
2023/06/23 09:58:37;;;;;;;21.00;16.17;;;947.40;1612.80;;;;;;5048302;28;20052;-60
2023/06/23 10:01:08;;;;;;;24.08;16.88;;;947.60;1612.80;;;;;;5048504;28;20048;-61
2023/06/23 10:03:48;;;;;;;18.42;15.35;;;947.40;1612.80;;;;;;5048087;28;20017;-64
2023/06/23 10:06:36;;;;;;;19.23;15.65;;;947.30;1638.40;;;;;;5048536;28;20067;-62
2023/06/23 10:09:10;;;;;;;21.35;15.40;;;922.40;1638.40;;;;;;5048514;28;20040;-61
2023/06/23 10:11:38;;;;;;;21.15;16.20;;;922.20;1689.60;;;;;;5049989;28;20112;-63
2023/06/23 10:14:11;;;;;;;23.90;15.80;;;947.20;1715.20;;;;;;5035926;28;20083;-61
2023/06/23 10:16:45;;;;;;;27.13;15.27;;;947.20;1664.00;;;;;;5034889;28;20025;-61
2023/06/23 10:19:12;;;;;;;21.83;15.45;;;922.40;1664.00;;;;;;5049934;28;20028;-61
2023/06/23 10:21:39;;;;;;;19.33;14.90;;;947.20;1689.60;;;;;;5049639;28;20041;-61
2023/06/23 10:24:08;;;;;;;19.95;15.57;;;947.40;1715.20;;;;;;5049634;28;20054;-61
2023/06/23 10:26:36;;;;;;;24.42;16.25;;;947.30;1715.20;;;;;;5049144;28;20029;-61
2023/06/23 10:29:05;;;;;;;21.15;15.30;;;947.20;1689.60;;;;;;5049703;28;20032;-61
2023/06/23 10:31:32;;;;;;;22.50;17.00;;;947.30;1689.60;;;;;;5049852;28;20029;-63
2023/06/23 10:33:59;;;;;;;21.00;15.82;;;947.30;1689.60;;;;;;5049226;28;20718;-61
2023/06/23 10:36:26;;;;;;;25.58;22.27;;;922.40;1715.20;;;;;;5048916;28;20031;-64
2023/06/23 10:38:54;;;;;;;18.85;16.85;;;922.50;1740.80;;;;;;5049165;28;20077;-64
2023/06/23 10:41:21;;;;;;;18.77;16.58;;;947.20;1740.80;;;;;;5049123;28;20102;-62
2023/06/23 10:43:51;;;;;;;22.55;16.30;;;947.20;1715.20;;;;;;5048927;28;20535;-61
2023/06/23 10:46:17;;;;;;;21.80;16.38;;;947.30;1766.40;;;;;;5049447;28;20355;-63
2023/06/23 10:48:43;;;;;;;22.15;15.05;;;922.50;1740.80;;;;;;5049030;28;20036;-65
2023/06/23 10:51:10;;;;;;;22.50;16.48;;;922.50;1715.20;;;;;;5049344;28;20029;-61
2023/06/23 10:54:05;;;;;;;21.35;17.27;;;922.30;1740.80;;;;;;5045785;28;20530;-64
2023/06/23 10:56:41;;;;;;;20.58;16.00;;;922.20;1740.80;;;;;;5047737;28;20033;-62
2023/06/23 10:59:28;;;;;;;18.92;16.38;;;921.80;1740.80;;;;;;5046870;28;20024;-61
2023/06/23 11:02:00;;;;;;;19.10;16.08;;;;;;;;;;5047010;28;20033;-62
2023/06/23 11:04:27;;;;;;;20.02;17.05;;;;;;;;;;5047507;28;20056;-64
2023/06/23 11:07:10;;;;;;;21.65;15.27;;;;;;;;;;5033610;28;20041;-61
2023/06/23 11:09:49;;;;;;;21.88;15.85;;;;;;;;;;5046952;28;20708;-61
2023/06/23 11:12:33;;;;;;;22.63;14.93;;;;;;;;;;5047234;28;20471;-64
2023/06/23 11:15:01;;;;;;;19.90;15.63;;;;;;;;;;5047305;28;20029;-63
2023/06/23 11:17:27;;;;;;;22.52;16.85;;;;;;;;;;5046615;28;20474;-62
2023/06/23 11:19:54;;;;;;;19.92;15.77;;;;;;;;;;5046717;28;20053;-61
2023/06/23 11:22:21;;;;;;;24.98;15.93;;;;;;;;;;5047136;28;20108;-64
2023/06/23 11:24:53;;;;;;;20.65;15.88;;;;;;;;;;5047235;28;20113;-60
2023/06/23 11:27:20;;;;;;;22.38;15.75;;;;;;;;;;5047807;28;20059;-63
2023/06/23 11:30:05;;;;;;;20.02;15.13;;;;;;;;;;5047369;28;20418;-61
2023/06/23 11:32:31;;;;;;;24.38;15.60;;;;;;;;;;5046980;28;20737;-62
2023/06/23 11:34:58;;;;;;;21.00;15.43;;;;;;;;;;5048597;28;20715;-61
2023/06/23 11:37:31;;;;;;;20.42;15.93;;;;;;;;;;5050750;28;20124;-60
2023/06/23 11:39:57;;;;;;;24.55;16.95;;;;;;;;;;5027953;28;20548;-63
2023/06/23 11:42:25;;;;;;;17.00;15.20;;;;;;;;;;5053013;28;20044;-64
2023/06/23 11:44:55;;;;;;;22.20;15.55;;;;;;;;;;5052937;28;20044;-62
2023/06/23 11:47:25;;;;;;;20.80;16.23;;;;;;;;;;5052383;28;20029;-65
2023/06/23 11:49:54;;;;;;;26.63;17.02;;;;;;;;;;5052856;28;20021;-65
2023/06/23 11:52:23;;;;;;;23.85;16.15;;;;;;;;;;5052800;28;20371;-63
2023/06/23 11:54:51;;;;;;;24.67;15.95;;;;;;;;;;5052675;28;20020;-62
2023/06/23 11:57:20;;;;;;;27.23;14.82;;;;;;;;;;5052496;28;20021;-61
2023/06/23 11:59:47;;;;;;;20.90;14.18;;;;;;;;;;5052362;28;20494;-61
2023/06/23 12:02:14;;;;;;;19.50;15.30;;;;;;;;;;5040473;28;20068;-61
2023/06/23 12:04:41;;;;;;;19.92;14.73;;;;;;;;;;5030710;28;20032;-61
2023/06/23 12:07:10;;;;;;;22.60;12.85;;;;;;;;;;5030213;28;20087;-61
2023/06/23 12:09:38;;;;;;;24.45;15.57;;;;;;;;;;5030366;28;20654;-61
2023/06/23 12:12:04;;;;;;;21.23;16.00;;;;;;;;;;5030814;28;20112;-61
2023/06/23 12:14:34;;;;;;;21.27;14.98;;;;;;;;;;5047719;28;20167;-62
2023/06/23 12:17:07;;;;;;;22.95;15.32;;;;;;;;;;5050545;28;20056;-61
2023/06/23 12:19:33;;;;;;;17.20;14.35;;;;;;;;;;5050697;28;20478;-62
2023/06/23 12:22:00;;;;;;;16.92;15.07;;;;;;;;;;5050968;28;20033;-62
2023/06/23 12:24:27;;;;;;;20.05;15.77;;;;;;;;;;5050476;28;20021;-61
2023/06/23 12:26:53;;;;;;;21.02;15.13;;;;;;;;;;5049325;28;20068;-62
2023/06/23 12:29:20;;;;;;;25.58;15.13;;;;;;;;;;5048205;28;20411;-63
2023/06/23 12:31:53;;;;;;;22.77;14.95;;;;;;;;;;5050524;28;20112;-61
2023/06/23 12:34:19;;;;;;;24.42;15.05;;;;;;;;;;5050493;28;20032;-61